sensor_id;sensor_type;location;lat;lon;timestamp;pressure;altitude;pressure_sealevel;temperature;humidity
61645;BME280;47553;52.428;13.382;2023-04-25T00:01:37;95940.28;;;7.42;85.19
61645;BME280;47553;52.428;13.382;2023-04-25T00:03:38;95936.50;;;7.51;85.59
61645;BME280;47553;52.428;13.382;2023-04-25T00:05:40;95940.81;;;7.38;85.43
61645;BME280;47553;52.428;13.382;2023-04-25T00:07:42;95939.44;;;7.42;85.66
61645;BME280;47553;52.428;13.382;2023-04-25T00:09:44;95937.44;;;7.44;84.95
61645;BME280;47553;52.428;13.382;2023-04-25T00:11:48;95939.44;;;7.42;85.46
61645;BME280;47553;52.428;13.382;2023-04-25T00:13:50;95940.25;;;7.27;85.40
61645;BME280;47553;52.428;13.382;2023-04-25T00:15:52;95942.72;;;7.44;84.97
61645;BME280;47553;52.428;13.382;2023-04-25T00:17:53;95940.53;;;7.33;86.09
61645;BME280;47553;52.428;13.382;2023-04-25T00:19:56;95945.13;;;7.39;87.10
61645;BME280;47553;52.428;13.382;2023-04-25T00:21:58;95934.69;;;7.37;85.13
61645;BME280;47553;52.428;13.382;2023-04-25T00:24:00;95943.03;;;7.34;85.84
61645;BME280;47553;52.428;13.382;2023-04-25T00:26:03;95933.78;;;7.30;85.36
61645;BME280;47553;52.428;13.382;2023-04-25T00:28:06;95930.66;;;7.26;85.01
61645;BME280;47553;52.428;13.382;2023-04-25T00:30:08;95935.69;;;7.21;84.66
61645;BME280;47553;52.428;13.382;2023-04-25T00:32:10;95933.69;;;7.23;84.14
61645;BME280;47553;52.428;13.382;2023-04-25T00:34:11;95933.03;;;7.21;85.22
61645;BME280;47553;52.428;13.382;2023-04-25T00:36:14;95937.22;;;7.16;84.99
61645;BME280;47553;52.428;13.382;2023-04-25T00:38:16;95924.00;;;7.31;83.90
61645;BME280;47553;52.428;13.382;2023-04-25T00:40:18;95926.09;;;7.20;84.54
61645;BME280;47553;52.428;13.382;2023-04-25T00:42:19;95929.94;;;7.33;83.62
61645;BME280;47553;52.428;13.382;2023-04-25T00:44:24;95930.84;;;7.40;83.28
61645;BME280;47553;52.428;13.382;2023-04-25T00:46:27;95934.88;;;7.36;83.57
61645;BME280;47553;52.428;13.382;2023-04-25T00:48:29;95920.53;;;7.45;82.97
61645;BME280;47553;52.428;13.382;2023-04-25T00:50:33;95922.13;;;7.60;82.58
61645;BME280;47553;52.428;13.382;2023-04-25T00:52:36;95922.53;;;7.43;83.84
61645;BME280;47553;52.428;13.382;2023-04-25T00:54:39;95926.16;;;7.56;83.34
61645;BME280;47553;52.428;13.382;2023-04-25T00:56:42;95918.63;;;7.39;83.93
61645;BME280;47553;52.428;13.382;2023-04-25T00:58:44;95917.88;;;7.45;83.05
61645;BME280;47553;52.428;13.382;2023-04-25T01:00:48;95913.19;;;7.47;82.29
61645;BME280;47553;52.428;13.382;2023-04-25T01:02:51;95916.59;;;7.41;83.29
61645;BME280;47553;52.428;13.382;2023-04-25T01:04:54;95914.31;;;7.38;83.53
61645;BME280;47553;52.428;13.382;2023-04-25T01:06:56;95912.38;;;7.32;84.68
61645;BME280;47553;52.428;13.382;2023-04-25T01:08:57;95915.97;;;7.39;84.30
61645;BME280;47553;52.428;13.382;2023-04-25T01:11:01;95920.25;;;7.40;83.66
61645;BME280;47553;52.428;13.382;2023-04-25T01:13:03;95918.84;;;7.58;83.12
61645;BME280;47553;52.428;13.382;2023-04-25T01:15:05;95916.75;;;7.54;84.05
61645;BME280;47553;52.428;13.382;2023-04-25T01:17:10;95916.56;;;7.55;85.81
61645;BME280;47553;52.428;13.382;2023-04-25T01:19:11;95912.09;;;7.56;86.99
61645;BME280;47553;52.428;13.382;2023-04-25T01:21:20;95908.53;;;7.49;90.10
61645;BME280;47553;52.428;13.382;2023-04-25T01:23:23;95910.84;;;7.37;88.99
61645;BME280;47553;52.428;13.382;2023-04-25T01:25:24;95914.13;;;7.39;87.70
61645;BME280;47553;52.428;13.382;2023-04-25T01:27:26;95905.81;;;7.27;88.32
61645;BME280;47553;52.428;13.382;2023-04-25T01:29:29;95911.66;;;7.08;89.15
61645;BME280;47553;52.428;13.382;2023-04-25T01:31:32;95904.44;;;7.02;88.30
61645;BME280;47553;52.428;13.382;2023-04-25T01:33:35;95900.16;;;7.01;88.32
61645;BME280;47553;52.428;13.382;2023-04-25T01:35:36;95907.53;;;7.06;88.31
61645;BME280;47553;52.428;13.382;2023-04-25T01:37:40;95905.53;;;6.93;88.33
61645;BME280;47553;52.428;13.382;2023-04-25T01:39:44;95909.19;;;7.07;86.86
61645;BME280;47553;52.428;13.382;2023-04-25T01:41:47;95910.38;;;6.89;88.10
61645;BME280;47553;52.428;13.382;2023-04-25T01:43:49;95905.38;;;6.80;88.60
61645;BME280;47553;52.428;13.382;2023-04-25T01:45:52;95908.00;;;6.80;87.97
61645;BME280;47553;52.428;13.382;2023-04-25T01:47:53;95905.28;;;6.73;88.18
61645;BME280;47553;52.428;13.382;2023-04-25T01:49:55;95909.66;;;6.81;87.47
61645;BME280;47553;52.428;13.382;2023-04-25T01:51:57;95897.22;;;6.96;86.63
61645;BME280;47553;52.428;13.382;2023-04-25T01:54:00;95898.69;;;6.84;87.62
61645;BME280;47553;52.428;13.382;2023-04-25T01:56:30;95898.25;;;6.80;89.26
61645;BME280;47553;52.428;13.382;2023-04-25T01:58:32;95891.84;;;6.89;88.71
61645;BME280;47553;52.428;13.382;2023-04-25T02:00:37;95901.63;;;6.89;89.74
61645;BME280;47553;52.428;13.382;2023-04-25T02:02:38;95892.66;;;6.90;90.40
61645;BME280;47553;52.428;13.382;2023-04-25T02:04:40;95896.88;;;6.70;91.93
61645;BME280;47553;52.428;13.382;2023-04-25T02:06:42;95886.19;;;6.63;93.30
61645;BME280;47553;52.428;13.382;2023-04-25T02:08:44;95889.75;;;6.55;95.00
61645;BME280;47553;52.428;13.382;2023-04-25T02:10:47;95891.59;;;6.70;93.83
61645;BME280;47553;52.428;13.382;2023-04-25T02:12:49;95895.22;;;6.54;94.63
61645;BME280;47553;52.428;13.382;2023-04-25T02:14:51;95897.97;;;6.60;94.65
61645;BME280;47553;52.428;13.382;2023-04-25T02:16:52;95883.91;;;6.45;95.19
61645;BME280;47553;52.428;13.382;2023-04-25T02:18:55;95880.63;;;6.58;93.98
61645;BME280;47553;52.428;13.382;2023-04-25T02:20:57;95886.25;;;6.40;95.06
61645;BME280;47553;52.428;13.382;2023-04-25T02:22:59;95882.94;;;6.38;94.95
61645;BME280;47553;52.428;13.382;2023-04-25T02:25:01;95894.97;;;6.26;96.60
61645;BME280;47553;52.428;13.382;2023-04-25T02:27:04;95887.31;;;6.31;95.99
61645;BME280;47553;52.428;13.382;2023-04-25T02:29:05;95884.81;;;6.52;94.65
61645;BME280;47553;52.428;13.382;2023-04-25T02:31:07;95882.09;;;6.60;93.84
61645;BME280;47553;52.428;13.382;2023-04-25T02:33:09;95889.38;;;6.58;94.12
61645;BME280;47553;52.428;13.382;2023-04-25T02:35:10;95878.25;;;6.48;95.24
61645;BME280;47553;52.428;13.382;2023-04-25T02:37:12;95886.88;;;6.42;96.02
61645;BME280;47553;52.428;13.382;2023-04-25T02:39:14;95883.19;;;6.51;94.59
61645;BME280;47553;52.428;13.382;2023-04-25T02:41:15;95883.81;;;6.53;94.55
61645;BME280;47553;52.428;13.382;2023-04-25T02:43:18;95876.88;;;6.67;93.72
61645;BME280;47553;52.428;13.382;2023-04-25T02:45:21;95879.88;;;6.49;95.50
61645;BME280;47553;52.428;13.382;2023-04-25T02:47:22;95883.19;;;6.51;95.63
61645;BME280;47553;52.428;13.382;2023-04-25T02:49:24;95869.84;;;6.59;95.61
61645;BME280;47553;52.428;13.382;2023-04-25T02:51:25;95867.38;;;6.43;97.72
61645;BME280;47553;52.428;13.382;2023-04-25T02:53:27;95864.00;;;6.49;97.72
61645;BME280;47553;52.428;13.382;2023-04-25T02:55:28;95866.56;;;6.57;96.22
61645;BME280;47553;52.428;13.382;2023-04-25T02:57:30;95872.78;;;6.64;95.02
61645;BME280;47553;52.428;13.382;2023-04-25T02:59:32;95874.97;;;6.46;96.26
61645;BME280;47553;52.428;13.382;2023-04-25T03:01:34;95873.06;;;6.55;95.65
61645;BME280;47553;52.428;13.382;2023-04-25T03:03:35;95873.50;;;6.58;95.38
61645;BME280;47553;52.428;13.382;2023-04-25T03:05:37;95874.59;;;6.49;96.27
61645;BME280;47553;52.428;13.382;2023-04-25T03:07:39;95861.72;;;6.46;95.91
61645;BME280;47553;52.428;13.382;2023-04-25T03:09:40;95861.38;;;6.64;94.40
61645;BME280;47553;52.428;13.382;2023-04-25T03:11:44;95864.00;;;6.49;94.94
61645;BME280;47553;52.428;13.382;2023-04-25T03:13:45;95866.56;;;6.57;94.37
61645;BME280;47553;52.428;13.382;2023-04-25T03:15:48;95859.91;;;6.61;93.95
61645;BME280;47553;52.428;13.382;2023-04-25T03:17:50;95855.88;;;6.51;94.46
61645;BME280;47553;52.428;13.382;2023-04-25T03:19:52;95857.81;;;6.57;94.49
61645;BME280;47553;52.428;13.382;2023-04-25T03:21:53;95853.06;;;6.52;94.87
61645;BME280;47553;52.428;13.382;2023-04-25T03:23:55;95851.59;;;6.64;93.56
61645;BME280;47553;52.428;13.382;2023-04-25T03:25:56;95854.59;;;6.47;93.50
61645;BME280;47553;52.428;13.382;2023-04-25T03:27:58;95850.97;;;6.48;93.26
61645;BME280;47553;52.428;13.382;2023-04-25T03:29:59;95858.34;;;6.52;93.06
61645;BME280;47553;52.428;13.382;2023-04-25T03:32:02;95845.84;;;6.46;93.56
61645;BME280;47553;52.428;13.382;2023-04-25T03:34:04;95841.75;;;6.58;92.65
61645;BME280;47553;52.428;13.382;2023-04-25T03:36:06;95845.47;;;6.64;92.47
61645;BME280;47553;52.428;13.382;2023-04-25T03:38:08;95848.88;;;6.58;91.92
61645;BME280;47553;52.428;13.382;2023-04-25T03:40:09;95851.22;;;6.68;91.47
61645;BME280;47553;52.428;13.382;2023-04-25T03:42:11;95855.69;;;6.67;90.53
61645;BME280;47553;52.428;13.382;2023-04-25T03:44:13;95858.44;;;6.74;90.94
61645;BME280;47553;52.428;13.382;2023-04-25T03:46:14;95857.34;;;6.68;91.51
61645;BME280;47553;52.428;13.382;2023-04-25T03:48:17;95848.88;;;6.58;91.42
61645;BME280;47553;52.428;13.382;2023-04-25T03:50:20;95846.41;;;6.56;91.29
61645;BME280;47553;52.428;13.382;2023-04-25T03:52:21;95849.97;;;6.63;91.35
61645;BME280;47553;52.428;13.382;2023-04-25T03:54:23;95845.25;;;6.36;94.14
61645;BME280;47553;52.428;13.382;2023-04-25T03:56:25;95848.19;;;6.41;94.07
61645;BME280;47553;52.428;13.382;2023-04-25T03:58:26;95861.41;;;6.41;94.92
61645;BME280;47553;52.428;13.382;2023-04-25T04:00:28;95856.06;;;6.49;94.25
61645;BME280;47553;52.428;13.382;2023-04-25T04:02:30;95858.34;;;6.52;93.62
61645;BME280;47553;52.428;13.382;2023-04-25T04:04:33;95858.63;;;6.57;94.16
61645;BME280;47553;52.428;13.382;2023-04-25T04:06:34;95849.84;;;6.42;94.31
61645;BME280;47553;52.428;13.382;2023-04-25T04:08:36;95842.06;;;6.41;94.95
61645;BME280;47553;52.428;13.382;2023-04-25T04:10:37;95862.22;;;6.27;95.85
61645;BME280;47553;52.428;13.382;2023-04-25T04:12:39;95858.50;;;6.36;95.59
61645;BME280;47553;52.428;13.382;2023-04-25T04:14:40;95858.59;;;6.43;95.17
61645;BME280;47553;52.428;13.382;2023-04-25T04:16:42;95851.19;;;6.23;96.51
61645;BME280;47553;52.428;13.382;2023-04-25T04:18:45;95862.88;;;6.29;96.42
61645;BME280;47553;52.428;13.382;2023-04-25T04:20:48;95864.06;;;6.26;97.24
61645;BME280;47553;52.428;13.382;2023-04-25T04:22:49;95870.78;;;6.14;97.74
61645;BME280;47553;52.428;13.382;2023-04-25T04:24:51;95862.41;;;6.25;97.21
61645;BME280;47553;52.428;13.382;2023-04-25T04:26:52;95872.03;;;6.04;99.11
61645;BME280;47553;52.428;13.382;2023-04-25T04:28:54;95882.69;;;5.95;100.00
61645;BME280;47553;52.428;13.382;2023-04-25T04:30:55;95862.88;;;5.91;100.00
61645;BME280;47553;52.428;13.382;2023-04-25T04:32:57;95874.47;;;5.90;100.00
61645;BME280;47553;52.428;13.382;2023-04-25T04:34:58;95873.47;;;5.91;100.00
61645;BME280;47553;52.428;13.382;2023-04-25T04:37:01;95872.34;;;5.86;100.00
61645;BME280;47553;52.428;13.382;2023-04-25T04:39:05;95876.13;;;6.06;100.00
61645;BME280;47553;52.428;13.382;2023-04-25T04:41:07;95880.91;;;6.11;100.00
61645;BME280;47553;52.428;13.382;2023-04-25T04:43:08;95871.97;;;6.12;100.00
61645;BME280;47553;52.428;13.382;2023-04-25T04:45:11;95882.63;;;6.04;100.00
61645;BME280;47553;52.428;13.382;2023-04-25T04:47:14;95876.06;;;6.14;100.00
61645;BME280;47553;52.428;13.382;2023-04-25T04:49:15;95871.97;;;6.12;100.00
61645;BME280;47553;52.428;13.382;2023-04-25T04:51:17;95878.91;;;6.13;100.00
61645;BME280;47553;52.428;13.382;2023-04-25T04:53:20;95884.72;;;6.08;100.00
61645;BME280;47553;52.428;13.382;2023-04-25T04:55:21;95880.75;;;6.27;100.00
61645;BME280;47553;52.428;13.382;2023-04-25T04:57:23;95881.03;;;6.32;100.00
61645;BME280;47553;52.428;13.382;2023-04-25T04:59:25;95887.22;;;6.24;100.00
61645;BME280;47553;52.428;13.382;2023-04-25T05:01:26;95881.25;;;6.45;99.87
61645;BME280;47553;52.428;13.382;2023-04-25T05:03:28;95882.09;;;6.60;98.12
61645;BME280;47553;52.428;13.382;2023-04-25T05:05:29;95889.28;;;6.52;98.06
61645;BME280;47553;52.428;13.382;2023-04-25T05:07:31;95883.09;;;6.59;98.17
61645;BME280;47553;52.428;13.382;2023-04-25T05:09:34;95878.44;;;6.61;98.01
61645;BME280;47553;52.428;13.382;2023-04-25T05:11:35;95886.66;;;6.67;98.67
61645;BME280;47553;52.428;13.382;2023-04-25T05:13:36;95887.56;;;6.74;97.75
61645;BME280;47553;52.428;13.382;2023-04-25T05:15:39;95885.56;;;6.76;97.42
61645;BME280;47553;52.428;13.382;2023-04-25T05:17:40;95881.09;;;6.76;97.69
61645;BME280;47553;52.428;13.382;2023-04-25T05:19:42;95883.09;;;6.89;96.44
61645;BME280;47553;52.428;13.382;2023-04-25T05:21:43;95885.91;;;6.87;95.48
61645;BME280;47553;52.428;13.382;2023-04-25T05:23:45;95891.75;;;6.83;95.13
61645;BME280;47553;52.428;13.382;2023-04-25T05:25:48;95887.28;;;6.83;94.42
61645;BME280;47553;52.428;13.382;2023-04-25T05:27:50;95883.63;;;6.84;94.63
61645;BME280;47553;52.428;13.382;2023-04-25T05:29:51;95882.81;;;6.84;94.85
61645;BME280;47553;52.428;13.382;2023-04-25T05:31:53;95882.06;;;6.90;94.48
61645;BME280;47553;52.428;13.382;2023-04-25T05:33:55;95882.44;;;6.87;93.78
61645;BME280;47553;52.428;13.382;2023-04-25T05:35:56;95885.72;;;6.89;92.97
61645;BME280;47553;52.428;13.382;2023-04-25T05:37:59;95881.53;;;6.94;92.93
61645;BME280;47553;52.428;13.382;2023-04-25T05:40:00;95894.31;;;6.91;92.74
61645;BME280;47553;52.428;13.382;2023-04-25T05:42:05;95887.56;;;6.74;93.71
61645;BME280;47553;52.428;13.382;2023-04-25T05:44:06;95884.72;;;6.75;93.56
61645;BME280;47553;52.428;13.382;2023-04-25T05:46:08;95883.63;;;6.84;93.35
61645;BME280;47553;52.428;13.382;2023-04-25T05:48:10;95888.47;;;6.81;93.42
61645;BME280;47553;52.428;13.382;2023-04-25T05:50:11;95878.44;;;6.61;94.21
61645;BME280;47553;52.428;13.382;2023-04-25T05:52:13;95895.59;;;6.65;95.60
61645;BME280;47553;52.428;13.382;2023-04-25T05:54:15;95895.97;;;6.62;95.88
61645;BME280;47553;52.428;13.382;2023-04-25T05:56:16;95888.38;;;6.74;95.11
61645;BME280;47553;52.428;13.382;2023-04-25T05:58:19;95894.78;;;6.65;95.98
61645;BME280;47553;52.428;13.382;2023-04-25T06:00:21;95886.09;;;6.71;95.83
61645;BME280;47553;52.428;13.382;2023-04-25T06:02:23;95894.31;;;6.61;97.31
61645;BME280;47553;52.428;13.382;2023-04-25T06:04:26;95886.94;;;6.72;96.67
61645;BME280;47553;52.428;13.382;2023-04-25T06:06:28;95895.31;;;6.75;96.27
61645;BME280;47553;52.428;13.382;2023-04-25T06:08:31;95891.59;;;6.70;96.66
61645;BME280;47553;52.428;13.382;2023-04-25T06:10:32;95886.94;;;6.72;97.45
61645;BME280;47553;52.428;13.382;2023-04-25T06:12:34;95890.41;;;6.72;97.34
61645;BME280;47553;52.428;13.382;2023-04-25T06:14:38;95883.00;;;6.68;96.94
61645;BME280;47553;52.428;13.382;2023-04-25T06:16:39;95883.63;;;6.55;97.47
61645;BME280;47553;52.428;13.382;2023-04-25T06:18:42;95883.72;;;6.76;96.09
61645;BME280;47553;52.428;13.382;2023-04-25T06:20:44;95881.63;;;6.72;96.18
61645;BME280;47553;52.428;13.382;2023-04-25T06:22:46;95880.16;;;6.54;96.55
61645;BME280;47553;52.428;13.382;2023-04-25T06:24:47;95887.75;;;6.57;96.46
61645;BME280;47553;52.428;13.382;2023-04-25T06:26:50;95891.41;;;6.56;96.42
61645;BME280;47553;52.428;13.382;2023-04-25T06:28:51;95889.56;;;6.72;95.26
61645;BME280;47553;52.428;13.382;2023-04-25T06:30:55;95894.97;;;6.78;95.50
61645;BME280;47553;52.428;13.382;2023-04-25T06:32:57;95883.63;;;6.84;93.61
61645;BME280;47553;52.428;13.382;2023-04-25T06:34:59;95890.84;;;6.90;93.38
61645;BME280;47553;52.428;13.382;2023-04-25T06:37:00;95890.03;;;6.90;91.21
61645;BME280;47553;52.428;13.382;2023-04-25T06:39:03;95891.94;;;6.96;90.12
61645;BME280;47553;52.428;13.382;2023-04-25T06:41:06;95896.31;;;7.04;90.18
61645;BME280;47553;52.428;13.382;2023-04-25T06:43:07;95897.31;;;7.03;88.82
61645;BME280;47553;52.428;13.382;2023-04-25T06:45:10;95894.69;;;6.88;88.91
61645;BME280;47553;52.428;13.382;2023-04-25T06:47:14;95894.69;;;6.88;88.45
61645;BME280;47553;52.428;13.382;2023-04-25T06:49:16;95891.84;;;6.89;88.18
61645;BME280;47553;52.428;13.382;2023-04-25T06:51:18;95887.47;;;6.82;88.69
61645;BME280;47553;52.428;13.382;2023-04-25T06:53:19;95894.31;;;6.91;87.92
61645;BME280;47553;52.428;13.382;2023-04-25T06:55:21;95889.56;;;6.72;88.03
61645;BME280;47553;52.428;13.382;2023-04-25T06:57:23;95898.47;;;6.41;89.48
61645;BME280;47553;52.428;13.382;2023-04-25T06:59:25;95898.53;;;6.33;91.16
61645;BME280;47553;52.428;13.382;2023-04-25T07:01:27;95907.91;;;6.21;91.15
61645;BME280;47553;52.428;13.382;2023-04-25T07:03:30;95908.75;;;5.98;92.08
61645;BME280;47553;52.428;13.382;2023-04-25T07:05:33;95905.47;;;5.96;91.71
61645;BME280;47553;52.428;13.382;2023-04-25T07:07:35;95915.91;;;6.13;91.17
61645;BME280;47553;52.428;13.382;2023-04-25T07:09:37;95905.72;;;6.24;90.87
61645;BME280;47553;52.428;13.382;2023-04-25T07:11:40;95909.00;;;6.12;91.12
61645;BME280;47553;52.428;13.382;2023-04-25T07:13:42;95909.75;;;5.97;91.65
61645;BME280;47553;52.428;13.382;2023-04-25T07:15:44;95915.59;;;5.93;93.52
61645;BME280;47553;52.428;13.382;2023-04-25T07:17:46;95913.13;;;5.91;94.88
61645;BME280;47553;52.428;13.382;2023-04-25T07:19:50;95913.41;;;5.96;92.45
61645;BME280;47553;52.428;13.382;2023-04-25T07:21:51;95918.47;;;6.06;93.00
61645;BME280;47553;52.428;13.382;2023-04-25T07:23:54;95914.59;;;5.71;92.44
61645;BME280;47553;52.428;13.382;2023-04-25T07:25:57;95917.47;;;5.84;93.31
61645;BME280;47553;52.428;13.382;2023-04-25T07:27:58;95918.69;;;5.96;94.69
61645;BME280;47553;52.428;13.382;2023-04-25T07:30:00;95921.75;;;6.08;95.27
61645;BME280;47553;52.428;13.382;2023-04-25T07:32:03;95922.28;;;6.04;95.81
61645;BME280;47553;52.428;13.382;2023-04-25T07:34:05;95921.28;;;6.05;95.05
61645;BME280;47553;52.428;13.382;2023-04-25T07:36:08;95921.69;;;5.93;96.47
61645;BME280;47553;52.428;13.382;2023-04-25T07:38:10;95919.00;;;5.79;97.86
61645;BME280;47553;52.428;13.382;2023-04-25T07:40:13;95924.84;;;5.66;99.12
61645;BME280;47553;52.428;13.382;2023-04-25T07:42:14;95925.16;;;5.71;99.97
61645;BME280;47553;52.428;13.382;2023-04-25T07:44:17;95929.66;;;5.62;100.00
61645;BME280;47553;52.428;13.382;2023-04-25T07:46:18;95922.53;;;5.63;100.00
61645;BME280;47553;52.428;13.382;2023-04-25T07:48:20;95926.09;;;5.78;100.00
61645;BME280;47553;52.428;13.382;2023-04-25T07:50:22;95938.31;;;5.79;100.00
61645;BME280;47553;52.428;13.382;2023-04-25T07:52:26;95937.78;;;5.84;100.00
61645;BME280;47553;52.428;13.382;2023-04-25T07:54:27;95949.53;;;5.81;100.00
61645;BME280;47553;52.428;13.382;2023-04-25T07:56:29;95941.84;;;5.94;100.00
61645;BME280;47553;52.428;13.382;2023-04-25T07:58:49;95948.38;;;6.07;100.00
61645;BME280;47553;52.428;13.382;2023-04-25T08:00:52;95951.44;;;5.95;100.00
61645;BME280;47553;52.428;13.382;2023-04-25T08:02:54;95947.50;;;5.60;100.00
61645;BME280;47553;52.428;13.382;2023-04-25T08:04:57;95963.72;;;5.57;100.00
61645;BME280;47553;52.428;13.382;2023-04-25T08:06:59;95959.72;;;5.61;100.00
61645;BME280;47553;52.428;13.382;2023-04-25T08:09:03;95965.13;;;5.68;100.00
61645;BME280;47553;52.428;13.382;2023-04-25T08:11:04;95958.94;;;5.53;100.00
61645;BME280;47553;52.428;13.382;2023-04-25T08:13:06;95962.41;;;5.53;100.00
61645;BME280;47553;52.428;13.382;2023-04-25T08:15:09;95968.09;;;5.73;100.00
61645;BME280;47553;52.428;13.382;2023-04-25T08:17:10;95972.63;;;5.87;100.00
61645;BME280;47553;52.428;13.382;2023-04-25T08:19:13;95980.91;;;5.84;100.00
61645;BME280;47553;52.428;13.382;2023-04-25T08:21:14;95988.50;;;5.87;100.00
61645;BME280;47553;52.428;13.382;2023-04-25T08:23:17;95982.56;;;5.85;100.00
61645;BME280;47553;52.428;13.382;2023-04-25T08:25:20;95986.09;;;6.00;100.00
61645;BME280;47553;52.428;13.382;2023-04-25T08:27:22;95993.03;;;6.01;100.00
61645;BME280;47553;52.428;13.382;2023-04-25T08:29:24;95980.88;;;5.92;100.00
61645;BME280;47553;52.428;13.382;2023-04-25T08:31:25;96000.31;;;5.99;100.00
61645;BME280;47553;52.428;13.382;2023-04-25T08:33:28;95998.56;;;5.92;100.00
61645;BME280;47553;52.428;13.382;2023-04-25T08:35:29;95998.97;;;6.04;100.00
61645;BME280;47553;52.428;13.382;2023-04-25T08:37:32;96001.03;;;6.16;100.00
61645;BME280;47553;52.428;13.382;2023-04-25T08:39:35;96005.22;;;6.11;100.00
61645;BME280;47553;52.428;13.382;2023-04-25T08:42:05;96008.84;;;6.10;100.00
61645;BME280;47553;52.428;13.382;2023-04-25T08:44:11;96007.25;;;6.00;100.00
61645;BME280;47553;52.428;13.382;2023-04-25T08:46:17;96006.31;;;5.93;100.00
61645;BME280;47553;52.428;13.382;2023-04-25T08:48:19;96009.19;;;6.07;100.00
61645;BME280;47553;52.428;13.382;2023-04-25T08:50:22;96020.88;;;5.89;100.00
61645;BME280;47553;52.428;13.382;2023-04-25T08:52:28;96016.47;;;5.82;100.00
61645;BME280;47553;52.428;13.382;2023-04-25T08:54:33;96021.84;;;5.96;100.00
61645;BME280;47553;52.428;13.382;2023-04-25T08:56:41;96033.94;;;6.14;100.00
61645;BME280;47553;52.428;13.382;2023-04-25T08:58:44;96032.91;;;6.23;100.00
61645;BME280;47553;52.428;13.382;2023-04-25T09:00:47;96033.72;;;6.23;100.00
61645;BME280;47553;52.428;13.382;2023-04-25T09:02:50;96037.47;;;6.29;100.00
61645;BME280;47553;52.428;13.382;2023-04-25T09:04:53;96038.66;;;6.04;100.00
61645;BME280;47553;52.428;13.382;2023-04-25T09:06:55;96037.13;;;6.09;100.00
61645;BME280;47553;52.428;13.382;2023-04-25T09:09:02;96041.25;;;6.12;100.00
61645;BME280;47553;52.428;13.382;2023-04-25T09:11:03;96051.81;;;6.12;100.00
61645;BME280;47553;52.428;13.382;2023-04-25T09:13:06;96056.50;;;6.01;100.00
61645;BME280;47553;52.428;13.382;2023-04-25T09:15:11;96052.34;;;5.76;100.00
61645;BME280;47553;52.428;13.382;2023-04-25T09:17:20;96059.91;;;5.87;100.00
61645;BME280;47553;52.428;13.382;2023-04-25T09:19:45;96063.16;;;5.97;100.00
61645;BME280;47553;52.428;13.382;2023-04-25T09:21:48;96074.66;;;6.05;100.00
61645;BME280;47553;52.428;13.382;2023-04-25T09:23:50;96075.38;;;5.98;100.00
61645;BME280;47553;52.428;13.382;2023-04-25T09:25:54;96072.47;;;5.85;100.00
61645;BME280;47553;52.428;13.382;2023-04-25T09:27:56;96088.41;;;5.69;100.00
61645;BME280;47553;52.428;13.382;2023-04-25T09:29:58;96083.94;;;5.69;100.00
61645;BME280;47553;52.428;13.382;2023-04-25T09:32:17;96084.44;;;5.57;100.00
61645;BME280;47553;52.428;13.382;2023-04-25T09:34:21;96087.47;;;5.46;100.00
61645;BME280;47553;52.428;13.382;2023-04-25T09:36:26;96092.03;;;5.60;100.00
61645;BME280;47553;52.428;13.382;2023-04-25T09:38:29;96096.69;;;5.50;100.00
61645;BME280;47553;52.428;13.382;2023-04-25T09:40:34;96103.91;;;5.64;100.00
61645;BME280;47553;52.428;13.382;2023-04-25T09:43:09;96103.69;;;5.26;100.00
61645;BME280;47553;52.428;13.382;2023-04-25T09:45:40;96105.47;;;5.42;100.00
61645;BME280;47553;52.428;13.382;2023-04-25T09:48:08;96112.94;;;5.30;100.00
61645;BME280;47553;52.428;13.382;2023-04-25T09:50:16;96115.59;;;5.14;100.00
61645;BME280;47553;52.428;13.382;2023-04-25T09:52:42;96117.44;;;4.97;100.00
61645;BME280;47553;52.428;13.382;2023-04-25T09:54:45;96121.22;;;5.03;100.00
61645;BME280;47553;52.428;13.382;2023-04-25T09:56:48;96127.16;;;5.21;100.00
61645;BME280;47553;52.428;13.382;2023-04-25T09:58:53;96118.72;;;4.93;100.00
61645;BME280;47553;52.428;13.382;2023-04-25T10:00:59;96124.47;;;4.81;100.00
61645;BME280;47553;52.428;13.382;2023-04-25T10:03:09;96129.09;;;4.87;100.00
61645;BME280;47553;52.428;13.382;2023-04-25T10:05:12;96126.16;;;4.90;100.00
61645;BME280;47553;52.428;13.382;2023-04-25T10:07:38;96127.13;;;4.89;100.00
61645;BME280;47553;52.428;13.382;2023-04-25T10:10:05;96124.84;;;5.02;100.00
61645;BME280;47553;52.428;13.382;2023-04-25T10:12:33;96125.16;;;4.91;100.00
61645;BME280;47553;52.428;13.382;2023-04-25T10:14:35;96128.28;;;4.94;100.00
61645;BME280;47553;52.428;13.382;2023-04-25T10:16:37;96129.09;;;4.79;100.00
61645;BME280;47553;52.428;13.382;2023-04-25T10:18:41;96129.16;;;5.03;100.00
61645;BME280;47553;52.428;13.382;2023-04-25T10:20:42;96132.38;;;4.81;100.00
61645;BME280;47553;52.428;13.382;2023-04-25T10:22:44;96129.09;;;4.87;100.00
61645;BME280;47553;52.428;13.382;2023-04-25T10:24:46;96141.31;;;4.88;100.00
61645;BME280;47553;52.428;13.382;2023-04-25T10:26:49;96140.19;;;5.07;100.00
61645;BME280;47553;52.428;13.382;2023-04-25T10:28:58;96130.09;;;4.86;100.00
61645;BME280;47553;52.428;13.382;2023-04-25T10:31:01;96142.28;;;4.87;100.00
61645;BME280;47553;52.428;13.382;2023-04-25T10:33:16;96138.38;;;5.15;100.00
61645;BME280;47553;52.428;13.382;2023-04-25T10:35:24;96142.84;;;5.15;100.00
61645;BME280;47553;52.428;13.382;2023-04-25T10:37:26;96141.19;;;5.14;100.00
61645;BME280;47553;52.428;13.382;2023-04-25T10:39:28;96149.28;;;5.12;100.00
61645;BME280;47553;52.428;13.382;2023-04-25T10:41:29;96143.97;;;5.28;100.00
61645;BME280;47553;52.428;13.382;2023-04-25T10:43:35;96146.63;;;5.20;100.00
61645;BME280;47553;52.428;13.382;2023-04-25T10:45:51;96144.63;;;5.22;100.00
61645;BME280;47553;52.428;13.382;2023-04-25T10:47:53;96145.31;;;5.16;100.00
61645;BME280;47553;52.428;13.382;2023-04-25T10:50:04;96159.84;;;5.12;100.00
61645;BME280;47553;52.428;13.382;2023-04-25T10:52:24;96160.50;;;5.22;100.00